sensor_id;sensor_type;location;lat;lon;timestamp;P1;durP1;ratioP1;P2;durP2;ratioP2
6249;SDS011;3158;52.148;11.568;2023-06-24T00:02:24;10.15;;;7.70;;
6249;SDS011;3158;52.148;11.568;2023-06-24T00:07:25;8.32;;;7.30;;
6249;SDS011;3158;52.148;11.568;2023-06-24T00:12:26;8.90;;;6.70;;
6249;SDS011;3158;52.148;11.568;2023-06-24T00:17:27;8.88;;;7.55;;
6249;SDS011;3158;52.148;11.568;2023-06-24T00:22:29;12.18;;;6.13;;
6249;SDS011;3158;52.148;11.568;2023-06-24T00:27:30;6.82;;;6.22;;
6249;SDS011;3158;52.148;11.568;2023-06-24T00:32:31;9.25;;;5.55;;
6249;SDS011;3158;52.148;11.568;2023-06-24T00:37:32;6.20;;;4.75;;
6249;SDS011;3158;52.148;11.568;2023-06-24T00:42:33;7.60;;;4.70;;
6249;SDS011;3158;52.148;11.568;2023-06-24T00:47:34;4.43;;;4.20;;
6249;SDS011;3158;52.148;11.568;2023-06-24T00:52:35;11.02;;;4.57;;
6249;SDS011;3158;52.148;11.568;2023-06-24T00:57:39;5.03;;;4.63;;
6249;SDS011;3158;52.148;11.568;2023-06-24T01:02:41;5.32;;;4.78;;
6249;SDS011;3158;52.148;11.568;2023-06-24T01:07:42;4.40;;;3.95;;
6249;SDS011;3158;52.148;11.568;2023-06-24T01:12:43;6.57;;;4.97;;
6249;SDS011;3158;52.148;11.568;2023-06-24T01:28:23;8.70;;;4.95;;
6249;SDS011;3158;52.148;11.568;2023-06-24T01:33:32;5.90;;;4.85;;
6249;SDS011;3158;52.148;11.568;2023-06-24T01:38:40;5.70;;;5.20;;
6249;SDS011;3158;52.148;11.568;2023-06-24T01:43:43;5.88;;;5.32;;
6249;SDS011;3158;52.148;11.568;2023-06-24T01:48:44;6.05;;;4.70;;
6249;SDS011;3158;52.148;11.568;2023-06-24T01:53:48;6.47;;;5.50;;
6249;SDS011;3158;52.148;11.568;2023-06-24T01:58:53;6.30;;;5.45;;
6249;SDS011;3158;52.148;11.568;2023-06-24T02:03:55;5.38;;;4.88;;
6249;SDS011;3158;52.148;11.568;2023-06-24T02:08:57;10.65;;;6.25;;
6249;SDS011;3158;52.148;11.568;2023-06-24T02:13:59;7.35;;;5.00;;
6249;SDS011;3158;52.148;11.568;2023-06-24T02:19:01;7.60;;;5.32;;
6249;SDS011;3158;52.148;11.568;2023-06-24T02:24:03;9.25;;;5.15;;
6249;SDS011;3158;52.148;11.568;2023-06-24T02:29:09;5.93;;;4.80;;
6249;SDS011;3158;52.148;11.568;2023-06-24T02:34:11;6.32;;;5.13;;
6249;SDS011;3158;52.148;11.568;2023-06-24T02:39:12;5.78;;;5.00;;
6249;SDS011;3158;52.148;11.568;2023-06-24T02:44:13;15.90;;;6.53;;
6249;SDS011;3158;52.148;11.568;2023-06-24T02:49:15;5.53;;;5.00;;
6249;SDS011;3158;52.148;11.568;2023-06-24T02:54:17;10.43;;;6.03;;
6249;SDS011;3158;52.148;11.568;2023-06-24T02:59:51;9.32;;;6.18;;
6249;SDS011;3158;52.148;11.568;2023-06-24T03:04:52;9.75;;;5.55;;
6249;SDS011;3158;52.148;11.568;2023-06-24T03:09:53;10.13;;;5.32;;
6249;SDS011;3158;52.148;11.568;2023-06-24T03:14:54;7.75;;;5.72;;
6249;SDS011;3158;52.148;11.568;2023-06-24T03:19:55;7.55;;;5.05;;
6249;SDS011;3158;52.148;11.568;2023-06-24T03:24:57;5.43;;;4.88;;
6249;SDS011;3158;52.148;11.568;2023-06-24T03:29:58;8.55;;;5.78;;
6249;SDS011;3158;52.148;11.568;2023-06-24T03:34:59;7.35;;;5.03;;
6249;SDS011;3158;52.148;11.568;2023-06-24T03:40:00;7.78;;;5.65;;
6249;SDS011;3158;52.148;11.568;2023-06-24T03:45:04;8.65;;;6.32;;
6249;SDS011;3158;52.148;11.568;2023-06-24T03:50:06;6.55;;;5.60;;
6249;SDS011;3158;52.148;11.568;2023-06-24T03:55:08;6.03;;;5.13;;
6249;SDS011;3158;52.148;11.568;2023-06-24T04:00:09;8.50;;;6.05;;
6249;SDS011;3158;52.148;11.568;2023-06-24T04:05:16;7.25;;;5.40;;
6249;SDS011;3158;52.148;11.568;2023-06-24T04:10:17;8.32;;;5.90;;
6249;SDS011;3158;52.148;11.568;2023-06-24T04:15:18;6.72;;;5.43;;
6249;SDS011;3158;52.148;11.568;2023-06-24T04:20:21;11.18;;;6.00;;
6249;SDS011;3158;52.148;11.568;2023-06-24T04:25:22;14.25;;;6.28;;
6249;SDS011;3158;52.148;11.568;2023-06-24T04:30:24;8.13;;;6.60;;
6249;SDS011;3158;52.148;11.568;2023-06-24T04:35:25;7.45;;;6.07;;
6249;SDS011;3158;52.148;11.568;2023-06-24T04:40:26;10.38;;;6.18;;
6249;SDS011;3158;52.148;11.568;2023-06-24T04:45:27;9.20;;;5.97;;
6249;SDS011;3158;52.148;11.568;2023-06-24T04:50:28;7.78;;;5.53;;
6249;SDS011;3158;52.148;11.568;2023-06-24T04:55:29;12.57;;;6.47;;
6249;SDS011;3158;52.148;11.568;2023-06-24T05:00:31;12.80;;;6.68;;
6249;SDS011;3158;52.148;11.568;2023-06-24T05:05:32;10.82;;;7.03;;
6249;SDS011;3158;52.148;11.568;2023-06-24T05:10:32;9.40;;;6.25;;
6249;SDS011;3158;52.148;11.568;2023-06-24T05:15:34;11.00;;;6.65;;
6249;SDS011;3158;52.148;11.568;2023-06-24T05:20:34;8.73;;;6.07;;
6249;SDS011;3158;52.148;11.568;2023-06-24T05:25:35;7.78;;;6.15;;
6249;SDS011;3158;52.148;11.568;2023-06-24T05:30:37;7.90;;;6.38;;
6249;SDS011;3158;52.148;11.568;2023-06-24T05:35:38;10.98;;;6.80;;
6249;SDS011;3158;52.148;11.568;2023-06-24T05:40:41;11.23;;;6.25;;
6249;SDS011;3158;52.148;11.568;2023-06-24T05:45:42;8.85;;;6.60;;
6249;SDS011;3158;52.148;11.568;2023-06-24T05:50:43;16.67;;;6.40;;
6249;SDS011;3158;52.148;11.568;2023-06-24T05:55:44;9.27;;;7.40;;
6249;SDS011;3158;52.148;11.568;2023-06-24T06:00:45;9.68;;;7.68;;
6249;SDS011;3158;52.148;11.568;2023-06-24T06:05:46;10.23;;;6.97;;
6249;SDS011;3158;52.148;11.568;2023-06-24T06:10:47;14.35;;;7.63;;
6249;SDS011;3158;52.148;11.568;2023-06-24T06:15:48;9.20;;;7.30;;
6249;SDS011;3158;52.148;11.568;2023-06-24T06:20:49;10.85;;;7.60;;
6249;SDS011;3158;52.148;11.568;2023-06-24T06:25:50;9.93;;;7.57;;
6249;SDS011;3158;52.148;11.568;2023-06-24T06:30:51;11.90;;;7.70;;
6249;SDS011;3158;52.148;11.568;2023-06-24T06:35:52;11.88;;;7.90;;
6249;SDS011;3158;52.148;11.568;2023-06-24T06:40:53;12.68;;;8.32;;
6249;SDS011;3158;52.148;11.568;2023-06-24T06:45:54;15.70;;;7.28;;
6249;SDS011;3158;52.148;11.568;2023-06-24T06:50:56;7.53;;;6.50;;
6249;SDS011;3158;52.148;11.568;2023-06-24T06:55:57;8.32;;;6.05;;
6249;SDS011;3158;52.148;11.568;2023-06-24T07:00:58;7.88;;;6.28;;
6249;SDS011;3158;52.148;11.568;2023-06-24T07:06:01;6.88;;;5.22;;
6249;SDS011;3158;52.148;11.568;2023-06-24T07:11:02;5.13;;;4.70;;
6249;SDS011;3158;52.148;11.568;2023-06-24T07:16:03;6.82;;;6.20;;
6249;SDS011;3158;52.148;11.568;2023-06-24T07:21:04;5.13;;;4.82;;
6249;SDS011;3158;52.148;11.568;2023-06-24T07:26:05;5.93;;;5.43;;
6249;SDS011;3158;52.148;11.568;2023-06-24T07:31:06;5.78;;;5.38;;
6249;SDS011;3158;52.148;11.568;2023-06-24T07:36:07;5.13;;;4.30;;
6249;SDS011;3158;52.148;11.568;2023-06-24T07:41:08;6.70;;;5.43;;
6249;SDS011;3158;52.148;11.568;2023-06-24T07:46:09;5.10;;;4.80;;
6249;SDS011;3158;52.148;11.568;2023-06-24T07:51:10;4.20;;;3.90;;
6249;SDS011;3158;52.148;11.568;2023-06-24T07:56:11;5.20;;;4.68;;
6249;SDS011;3158;52.148;11.568;2023-06-24T08:01:12;6.22;;;4.68;;
6249;SDS011;3158;52.148;11.568;2023-06-24T08:06:13;4.78;;;4.45;;
6249;SDS011;3158;52.148;11.568;2023-06-24T08:11:14;4.57;;;3.65;;
6249;SDS011;3158;52.148;11.568;2023-06-24T08:16:16;3.85;;;3.65;;
6249;SDS011;3158;52.148;11.568;2023-06-24T08:21:20;5.70;;;5.30;;
6249;SDS011;3158;52.148;11.568;2023-06-24T08:26:21;4.45;;;4.20;;
6249;SDS011;3158;52.148;11.568;2023-06-24T08:31:22;4.10;;;3.92;;
6249;SDS011;3158;52.148;11.568;2023-06-24T08:36:26;4.97;;;4.57;;
6249;SDS011;3158;52.148;11.568;2023-06-24T08:41:31;8.50;;;3.80;;
6249;SDS011;3158;52.148;11.568;2023-06-24T08:46:32;6.63;;;4.40;;
6249;SDS011;3158;52.148;11.568;2023-06-24T08:51:38;3.13;;;2.88;;
6249;SDS011;3158;52.148;11.568;2023-06-24T08:56:40;2.30;;;2.08;;
6249;SDS011;3158;52.148;11.568;2023-06-24T09:01:41;3.63;;;2.58;;
6249;SDS011;3158;52.148;11.568;2023-06-24T09:06:42;2.95;;;2.75;;
6249;SDS011;3158;52.148;11.568;2023-06-24T09:11:54;2.30;;;2.22;;
6249;SDS011;3158;52.148;11.568;2023-06-24T09:22:00;3.90;;;2.58;;
6249;SDS011;3158;52.148;11.568;2023-06-24T09:27:02;2.63;;;2.53;;
6249;SDS011;3158;52.148;11.568;2023-06-24T09:32:04;2.25;;;2.10;;
6249;SDS011;3158;52.148;11.568;2023-06-24T09:37:05;2.10;;;2.10;;
6249;SDS011;3158;52.148;11.568;2023-06-24T09:42:06;2.35;;;2.33;;
6249;SDS011;3158;52.148;11.568;2023-06-24T09:47:10;2.33;;;2.22;;
6249;SDS011;3158;52.148;11.568;2023-06-24T09:52:11;2.58;;;2.47;;
6249;SDS011;3158;52.148;11.568;2023-06-24T09:57:16;2.50;;;2.15;;
6249;SDS011;3158;52.148;11.568;2023-06-24T10:02:18;1.95;;;1.95;;
6249;SDS011;3158;52.148;11.568;2023-06-24T10:07:19;2.47;;;2.35;;
6249;SDS011;3158;52.148;11.568;2023-06-24T10:12:20;2.38;;;2.17;;
6249;SDS011;3158;52.148;11.568;2023-06-24T10:17:22;1.88;;;1.88;;
6249;SDS011;3158;52.148;11.568;2023-06-24T10:22:23;2.50;;;2.33;;
6249;SDS011;3158;52.148;11.568;2023-06-24T10:27:26;1.70;;;1.60;;
6249;SDS011;3158;52.148;11.568;2023-06-24T10:32:39;1.58;;;1.48;;
6249;SDS011;3158;52.148;11.568;2023-06-24T10:37:47;1.83;;;1.73;;
6249;SDS011;3158;52.148;11.568;2023-06-24T10:42:54;1.52;;;1.52;;
6249;SDS011;3158;52.148;11.568;2023-06-24T10:47:55;2.33;;;2.00;;
6249;SDS011;3158;52.148;11.568;2023-06-24T10:52:56;1.65;;;1.55;;
6249;SDS011;3158;52.148;11.568;2023-06-24T10:58:10;1.58;;;1.58;;
6249;SDS011;3158;52.148;11.568;2023-06-24T11:03:14;2.25;;;1.73;;
6249;SDS011;3158;52.148;11.568;2023-06-24T11:08:15;1.95;;;1.75;;
6249;SDS011;3158;52.148;11.568;2023-06-24T11:13:16;1.67;;;1.58;;
6249;SDS011;3158;52.148;11.568;2023-06-24T11:18:20;1.55;;;1.55;;
6249;SDS011;3158;52.148;11.568;2023-06-24T11:23:21;1.67;;;1.67;;
6249;SDS011;3158;52.148;11.568;2023-06-24T11:28:22;1.50;;;1.40;;
6249;SDS011;3158;52.148;11.568;2023-06-24T11:33:27;2.22;;;1.95;;
6249;SDS011;3158;52.148;11.568;2023-06-24T11:38:29;1.83;;;1.83;;
6249;SDS011;3158;52.148;11.568;2023-06-24T11:43:32;1.60;;;1.60;;
6249;SDS011;3158;52.148;11.568;2023-06-24T11:48:39;1.48;;;1.48;;
6249;SDS011;3158;52.148;11.568;2023-06-24T11:53:41;2.03;;;2.03;;
6249;SDS011;3158;52.148;11.568;2023-06-24T11:58:43;1.40;;;1.40;;
6249;SDS011;3158;52.148;11.568;2023-06-24T12:03:44;1.30;;;1.30;;
6249;SDS011;3158;52.148;11.568;2023-06-24T12:08:45;1.50;;;1.50;;
6249;SDS011;3158;52.148;11.568;2023-06-24T12:13:46;1.48;;;1.48;;
6249;SDS011;3158;52.148;11.568;2023-06-24T12:18:47;1.75;;;1.65;;
6249;SDS011;3158;52.148;11.568;2023-06-24T12:23:48;1.70;;;1.70;;
6249;SDS011;3158;52.148;11.568;2023-06-24T12:28:49;1.40;;;1.40;;
6249;SDS011;3158;52.148;11.568;2023-06-24T12:33:50;1.70;;;1.70;;
6249;SDS011;3158;52.148;11.568;2023-06-24T12:38:52;1.58;;;1.48;;
6249;SDS011;3158;52.148;11.568;2023-06-24T12:43:53;1.80;;;1.60;;
6249;SDS011;3158;52.148;11.568;2023-06-24T12:48:54;2.22;;;1.55;;
6249;SDS011;3158;52.148;11.568;2023-06-24T12:53:56;1.27;;;1.27;;
6249;SDS011;3158;52.148;11.568;2023-06-24T12:58:57;1.50;;;1.40;;
6249;SDS011;3158;52.148;11.568;2023-06-24T13:03:58;1.40;;;1.40;;
6249;SDS011;3158;52.148;11.568;2023-06-24T13:08:59;1.88;;;1.73;;
6249;SDS011;3158;52.148;11.568;2023-06-24T13:14:00;3.30;;;1.25;;
6249;SDS011;3158;52.148;11.568;2023-06-24T13:19:01;1.65;;;1.65;;
6249;SDS011;3158;52.148;11.568;2023-06-24T13:24:02;1.50;;;1.50;;
6249;SDS011;3158;52.148;11.568;2023-06-24T13:29:03;1.27;;;1.27;;
6249;SDS011;3158;52.148;11.568;2023-06-24T13:34:04;1.50;;;1.50;;
6249;SDS011;3158;52.148;11.568;2023-06-24T13:39:06;1.60;;;1.50;;
6249;SDS011;3158;52.148;11.568;2023-06-24T13:44:08;1.52;;;1.42;;
6249;SDS011;3158;52.148;11.568;2023-06-24T13:49:09;3.13;;;1.50;;
6249;SDS011;3158;52.148;11.568;2023-06-24T13:54:11;1.30;;;1.27;;
6249;SDS011;3158;52.148;11.568;2023-06-24T13:59:12;1.30;;;1.30;;
6249;SDS011;3158;52.148;11.568;2023-06-24T14:04:13;1.30;;;1.30;;
6249;SDS011;3158;52.148;11.568;2023-06-24T14:09:14;1.75;;;1.42;;
6249;SDS011;3158;52.148;11.568;2023-06-24T14:14:15;2.10;;;1.65;;
6249;SDS011;3158;52.148;11.568;2023-06-24T14:19:16;1.30;;;1.30;;
6249;SDS011;3158;52.148;11.568;2023-06-24T14:24:17;1.42;;;1.27;;
6249;SDS011;3158;52.148;11.568;2023-06-24T14:29:18;1.67;;;1.58;;
6249;SDS011;3158;52.148;11.568;2023-06-24T14:34:19;1.35;;;1.35;;
6249;SDS011;3158;52.148;11.568;2023-06-24T14:39:20;1.55;;;1.55;;
6249;SDS011;3158;52.148;11.568;2023-06-24T14:44:21;1.73;;;1.10;;
6249;SDS011;3158;52.148;11.568;2023-06-24T14:49:22;1.52;;;1.52;;
6249;SDS011;3158;52.148;11.568;2023-06-24T14:54:23;1.40;;;1.40;;
6249;SDS011;3158;52.148;11.568;2023-06-24T14:59:24;1.55;;;1.55;;
6249;SDS011;3158;52.148;11.568;2023-06-24T15:04:25;1.65;;;1.55;;
6249;SDS011;3158;52.148;11.568;2023-06-24T15:09:26;1.38;;;1.38;;
6249;SDS011;3158;52.148;11.568;2023-06-24T15:14:27;1.65;;;1.55;;
6249;SDS011;3158;52.148;11.568;2023-06-24T15:19:28;1.73;;;1.60;;
6249;SDS011;3158;52.148;11.568;2023-06-24T15:24:29;1.83;;;1.83;;
6249;SDS011;3158;52.148;11.568;2023-06-24T15:29:30;1.67;;;1.60;;
6249;SDS011;3158;52.148;11.568;2023-06-24T15:34:31;2.15;;;1.70;;
6249;SDS011;3158;52.148;11.568;2023-06-24T15:39:32;1.52;;;1.52;;
6249;SDS011;3158;52.148;11.568;2023-06-24T15:44:33;1.40;;;1.30;;
6249;SDS011;3158;52.148;11.568;2023-06-24T15:49:34;2.05;;;2.03;;
6249;SDS011;3158;52.148;11.568;2023-06-24T15:54:35;1.63;;;1.63;;
6249;SDS011;3158;52.148;11.568;2023-06-24T15:59:36;1.42;;;1.38;;
6249;SDS011;3158;52.148;11.568;2023-06-24T16:04:37;1.92;;;1.85;;
6249;SDS011;3158;52.148;11.568;2023-06-24T16:09:38;1.48;;;1.48;;
6249;SDS011;3158;52.148;11.568;2023-06-24T16:14:39;3.38;;;3.05;;
6249;SDS011;3158;52.148;11.568;2023-06-24T16:19:42;2.30;;;2.30;;
6249;SDS011;3158;52.148;11.568;2023-06-24T16:24:42;1.95;;;1.95;;
6249;SDS011;3158;52.148;11.568;2023-06-24T16:29:44;2.00;;;1.90;;
6249;SDS011;3158;52.148;11.568;2023-06-24T16:34:45;1.98;;;1.88;;
6249;SDS011;3158;52.148;11.568;2023-06-24T16:39:46;3.13;;;1.85;;
6249;SDS011;3158;52.148;11.568;2023-06-24T16:44:47;4.53;;;2.10;;
6249;SDS011;3158;52.148;11.568;2023-06-24T16:49:48;1.80;;;1.80;;
6249;SDS011;3158;52.148;11.568;2023-06-24T16:54:50;2.35;;;1.67;;
6249;SDS011;3158;52.148;11.568;2023-06-24T16:59:51;1.80;;;1.80;;
6249;SDS011;3158;52.148;11.568;2023-06-24T17:04:52;2.72;;;2.63;;
6249;SDS011;3158;52.148;11.568;2023-06-24T17:09:53;2.50;;;2.30;;
6249;SDS011;3158;52.148;11.568;2023-06-24T17:14:54;2.28;;;2.17;;
6249;SDS011;3158;52.148;11.568;2023-06-24T17:19:55;2.30;;;2.22;;
6249;SDS011;3158;52.148;11.568;2023-06-24T17:24:56;1.70;;;1.70;;
6249;SDS011;3158;52.148;11.568;2023-06-24T17:29:57;2.35;;;2.35;;
6249;SDS011;3158;52.148;11.568;2023-06-24T17:34:58;1.73;;;1.73;;
6249;SDS011;3158;52.148;11.568;2023-06-24T17:39:59;1.40;;;1.40;;
6249;SDS011;3158;52.148;11.568;2023-06-24T17:45:00;1.70;;;1.70;;
6249;SDS011;3158;52.148;11.568;2023-06-24T17:50:01;1.52;;;1.52;;
6249;SDS011;3158;52.148;11.568;2023-06-24T17:55:02;3.67;;;3.47;;
6249;SDS011;3158;52.148;11.568;2023-06-24T18:00:04;4.03;;;3.83;;
6249;SDS011;3158;52.148;11.568;2023-06-24T18:05:06;3.03;;;2.92;;
6249;SDS011;3158;52.148;11.568;2023-06-24T18:10:07;3.35;;;3.17;;
6249;SDS011;3158;52.148;11.568;2023-06-24T18:15:08;3.28;;;3.17;;
6249;SDS011;3158;52.148;11.568;2023-06-24T18:20:09;2.08;;;1.98;;
6249;SDS011;3158;52.148;11.568;2023-06-24T18:25:10;9.52;;;3.90;;
6249;SDS011;3158;52.148;11.568;2023-06-24T18:30:11;2.70;;;2.60;;
6249;SDS011;3158;52.148;11.568;2023-06-24T18:35:12;1.77;;;1.77;;
6249;SDS011;3158;52.148;11.568;2023-06-24T18:40:13;2.22;;;2.13;;
6249;SDS011;3158;52.148;11.568;2023-06-24T18:45:14;3.10;;;2.75;;
6249;SDS011;3158;52.148;11.568;2023-06-24T18:50:16;4.65;;;2.25;;
6249;SDS011;3158;52.148;11.568;2023-06-24T18:55:17;2.50;;;2.40;;
6249;SDS011;3158;52.148;11.568;2023-06-24T19:00:18;2.08;;;1.95;;
6249;SDS011;3158;52.148;11.568;2023-06-24T19:05:19;2.15;;;2.10;;
6249;SDS011;3158;52.148;11.568;2023-06-24T19:10:20;3.00;;;2.90;;
6249;SDS011;3158;52.148;11.568;2023-06-24T19:15:21;5.47;;;2.70;;
6249;SDS011;3158;52.148;11.568;2023-06-24T19:20:22;2.80;;;2.70;;
6249;SDS011;3158;52.148;11.568;2023-06-24T19:25:23;3.08;;;2.97;;
6249;SDS011;3158;52.148;11.568;2023-06-24T19:30:24;2.88;;;2.78;;
6249;SDS011;3158;52.148;11.568;2023-06-24T19:35:25;3.05;;;2.58;;
6249;SDS011;3158;52.148;11.568;2023-06-24T19:40:26;3.42;;;2.60;;
6249;SDS011;3158;52.148;11.568;2023-06-24T19:45:27;1.80;;;1.70;;
6249;SDS011;3158;52.148;11.568;2023-06-24T19:50:28;2.25;;;2.25;;
6249;SDS011;3158;52.148;11.568;2023-06-24T19:55:29;2.95;;;2.75;;
6249;SDS011;3158;52.148;11.568;2023-06-24T20:00:30;3.20;;;3.10;;
6249;SDS011;3158;52.148;11.568;2023-06-24T20:05:31;2.80;;;2.70;;
6249;SDS011;3158;52.148;11.568;2023-06-24T20:10:33;3.05;;;2.92;;
6249;SDS011;3158;52.148;11.568;2023-06-24T20:15:34;4.22;;;3.67;;
6249;SDS011;3158;52.148;11.568;2023-06-24T20:20:35;3.03;;;2.92;;
6249;SDS011;3158;52.148;11.568;2023-06-24T20:25:36;3.10;;;3.00;;
6249;SDS011;3158;52.148;11.568;2023-06-24T20:30:37;2.83;;;2.72;;
6249;SDS011;3158;52.148;11.568;2023-06-24T20:35:38;3.10;;;2.90;;
6249;SDS011;3158;52.148;11.568;2023-06-24T20:40:39;2.85;;;2.50;;
6249;SDS011;3158;52.148;11.568;2023-06-24T20:45:40;2.90;;;2.67;;
6249;SDS011;3158;52.148;11.568;2023-06-24T20:50:41;4.32;;;3.15;;
6249;SDS011;3158;52.148;11.568;2023-06-24T20:55:42;2.58;;;2.47;;
6249;SDS011;3158;52.148;11.568;2023-06-24T21:00:43;3.40;;;3.30;;
6249;SDS011;3158;52.148;11.568;2023-06-24T21:05:44;3.97;;;3.65;;
6249;SDS011;3158;52.148;11.568;2023-06-24T21:10:45;3.65;;;3.55;;
6249;SDS011;3158;52.148;11.568;2023-06-24T21:15:46;3.90;;;3.60;;
6249;SDS011;3158;52.148;11.568;2023-06-24T21:20:47;5.30;;;3.45;;
6249;SDS011;3158;52.148;11.568;2023-06-24T21:25:50;3.22;;;2.90;;
6249;SDS011;3158;52.148;11.568;2023-06-24T21:30:53;2.90;;;2.78;;
6249;SDS011;3158;52.148;11.568;2023-06-24T21:35:54;2.95;;;2.75;;
6249;SDS011;3158;52.148;11.568;2023-06-24T21:40:55;2.78;;;2.67;;
6249;SDS011;3158;52.148;11.568;2023-06-24T21:45:56;4.00;;;3.63;;
6249;SDS011;3158;52.148;11.568;2023-06-24T21:50:57;4.50;;;4.15;;
6249;SDS011;3158;52.148;11.568;2023-06-24T21:55:58;3.22;;;3.13;;
6249;SDS011;3158;52.148;11.568;2023-06-24T22:00:59;3.30;;;3.10;;
6249;SDS011;3158;52.148;11.568;2023-06-24T22:06:00;4.28;;;2.92;;
6249;SDS011;3158;52.148;11.568;2023-06-24T22:11:01;3.58;;;3.38;;
6249;SDS011;3158;52.148;11.568;2023-06-24T22:16:02;3.40;;;3.20;;
6249;SDS011;3158;52.148;11.568;2023-06-24T22:21:03;3.55;;;3.30;;
6249;SDS011;3158;52.148;11.568;2023-06-24T22:26:04;8.32;;;3.08;;
6249;SDS011;3158;52.148;11.568;2023-06-24T22:31:05;3.40;;;3.22;;
6249;SDS011;3158;52.148;11.568;2023-06-24T22:36:06;3.55;;;3.25;;
6249;SDS011;3158;52.148;11.568;2023-06-24T22:41:07;3.70;;;2.90;;
6249;SDS011;3158;52.148;11.568;2023-06-24T22:46:08;3.92;;;3.63;;
6249;SDS011;3158;52.148;11.568;2023-06-24T22:51:09;3.00;;;2.90;;
6249;SDS011;3158;52.148;11.568;2023-06-24T22:56:10;4.68;;;3.30;;
6249;SDS011;3158;52.148;11.568;2023-06-24T23:01:11;3.58;;;3.38;;
6249;SDS011;3158;52.148;11.568;2023-06-24T23:06:12;4.53;;;3.80;;
6249;SDS011;3158;52.148;11.568;2023-06-24T23:11:14;4.88;;;4.47;;
6249;SDS011;3158;52.148;11.568;2023-06-24T23:16:15;4.72;;;4.32;;
6249;SDS011;3158;52.148;11.568;2023-06-24T23:21:16;4.55;;;4.18;;
6249;SDS011;3158;52.148;11.568;2023-06-24T23:26:17;4.25;;;3.85;;
6249;SDS011;3158;52.148;11.568;2023-06-24T23:31:24;4.10;;;3.90;;
6249;SDS011;3158;52.148;11.568;2023-06-24T23:36:25;5.00;;;4.50;;
6249;SDS011;3158;52.148;11.568;2023-06-24T23:41:28;5.30;;;4.90;;
6249;SDS011;3158;52.148;11.568;2023-06-24T23:46:29;9.20;;;5.88;;
6249;SDS011;3158;52.148;11.568;2023-06-24T23:51:31;5.55;;;5.10;;
6249;SDS011;3158;52.148;11.568;2023-06-24T23:56:32;5.22;;;4.75;;
